N571GT KSJC-KHND
Flight info
| Callsign | N571GT |
|---|---|
| Flight time | 1h 24m |
| Altitude | 41000 |
| Route | SPTNS1 TECKY NTELL FUULL GAMES2 |
| Aircraft | C525/L-SDFGRWY/S |
Departure
| Time | 2026-05-05 02:34 |
|---|---|
| Airport | Norman Y. Mineta San Jose International Airport (KSJC) |
Arrival
| Time | 2026-05-05 03:59 |
|---|---|
| Airport | Henderson Executive Airport (KHND) |
| Time | Latitude | Longitude | Altitude | Speed | Heading |
|---|---|---|---|---|---|
| 2026-05-05 02:03 | 37.35490 | -121.92603 | 68 ft | 0 kts | 42° |
| 2026-05-05 02:29 | 37.35491 | -121.92602 | 68 ft | 0 kts | 41° |
| 2026-05-05 02:29 | 37.35495 | -121.92596 | 68 ft | 2 kts | 60° |
| 2026-05-05 02:29 | 37.35492 | -121.92564 | 68 ft | 4 kts | 121° |
| 2026-05-05 02:30 | 37.35466 | -121.92529 | 67 ft | 7 kts | 138° |
| 2026-05-05 02:30 | 37.35440 | -121.92482 | 67 ft | 6 kts | 104° |
| 2026-05-05 02:30 | 37.35446 | -121.92424 | 67 ft | 6 kts | 61° |
| 2026-05-05 02:30 | 37.35471 | -121.92381 | 68 ft | 5 kts | 48° |
| 2026-05-05 02:31 | 37.35492 | -121.92336 | 68 ft | 6 kts | 93° |
| 2026-05-05 02:31 | 37.35454 | -121.92279 | 67 ft | 10 kts | 139° |
| 2026-05-05 02:31 | 37.35400 | -121.92221 | 68 ft | 9 kts | 138° |
| 2026-05-05 02:31 | 37.35354 | -121.92168 | 67 ft | 8 kts | 138° |
| 2026-05-05 02:32 | 37.35312 | -121.92123 | 67 ft | 7 kts | 139° |
| 2026-05-05 02:32 | 37.35273 | -121.92082 | 68 ft | 6 kts | 139° |
| 2026-05-05 02:32 | 37.35250 | -121.92056 | 67 ft | 1 kts | 137° |
| 2026-05-05 02:32 | 37.35226 | -121.92029 | 68 ft | 7 kts | 135° |
| 2026-05-05 02:33 | 37.35218 | -121.91976 | 67 ft | 6 kts | 66° |
| 2026-05-05 02:33 | 37.35247 | -121.91930 | 68 ft | 8 kts | 46° |
| 2026-05-05 02:33 | 37.35294 | -121.91923 | 67 ft | 6 kts | 331° |
| 2026-05-05 02:33 | 37.35328 | -121.91957 | 67 ft | 6 kts | 319° |
| 2026-05-05 02:34 | 37.35422 | -121.92061 | 68 ft | 41 kts | 317° |
| 2026-05-05 02:34 | 37.35822 | -121.92498 | 69 ft | 108 kts | 319° |
| 2026-05-05 02:34 | 37.36438 | -121.93179 | 334 ft | 131 kts | 318° |
| 2026-05-05 02:34 | 37.37209 | -121.94002 | 682 ft | 163 kts | 320° |
| 2026-05-05 02:35 | 37.38131 | -121.94960 | 1219 ft | 183 kts | 319° |
| 2026-05-05 02:35 | 37.39101 | -121.95971 | 1932 ft | 191 kts | 319° |
| 2026-05-05 02:35 | 37.40117 | -121.97092 | 2770 ft | 193 kts | 319° |
| 2026-05-05 02:35 | 37.41315 | -121.97675 | 3556 ft | 195 kts | 359° |
| 2026-05-05 02:36 | 37.42559 | -121.97053 | 4307 ft | 201 kts | 42° |
| 2026-05-05 02:36 | 37.43301 | -121.95606 | 5062 ft | 202 kts | 72° |
| 2026-05-05 02:36 | 37.43292 | -121.93906 | 5800 ft | 202 kts | 109° |
| 2026-05-05 02:36 | 37.42511 | -121.92528 | 6557 ft | 200 kts | 139° |
| 2026-05-05 02:37 | 37.41423 | -121.91434 | 7157 ft | 207 kts | 141° |
| 2026-05-05 02:37 | 37.40372 | -121.90295 | 7861 ft | 209 kts | 136° |
| 2026-05-05 02:37 | 37.39361 | -121.88985 | 8545 ft | 212 kts | 131° |
| 2026-05-05 02:37 | 37.38398 | -121.87571 | 9195 ft | 216 kts | 128° |
| 2026-05-05 02:38 | 37.37466 | -121.86120 | 9855 ft | 218 kts | 127° |
| 2026-05-05 02:38 | 37.36540 | -121.84650 | 10491 ft | 221 kts | 126° |
| 2026-05-05 02:38 | 37.35617 | -121.83185 | 11124 ft | 222 kts | 126° |
| 2026-05-05 02:38 | 37.34662 | -121.81670 | 11749 ft | 224 kts | 126° |
| 2026-05-05 02:39 | 37.33689 | -121.80135 | 12352 ft | 226 kts | 126° |
| 2026-05-05 02:39 | 37.32707 | -121.78603 | 12950 ft | 228 kts | 127° |
| 2026-05-05 02:39 | 37.31616 | -121.77175 | 13524 ft | 231 kts | 134° |
| 2026-05-05 02:39 | 37.30391 | -121.75830 | 14102 ft | 233 kts | 135° |
| 2026-05-05 02:40 | 37.29184 | -121.74496 | 14669 ft | 233 kts | 131° |
| 2026-05-05 02:40 | 37.28341 | -121.72844 | 15220 ft | 226 kts | 107° |
| 2026-05-05 02:40 | 37.27943 | -121.70957 | 15786 ft | 224 kts | 95° |
| 2026-05-05 02:40 | 37.27743 | -121.69021 | 16359 ft | 223 kts | 93° |
| 2026-05-05 02:41 | 37.27517 | -121.67112 | 16838 ft | 226 kts | 95° |
| 2026-05-05 02:41 | 37.27211 | -121.65191 | 17379 ft | 226 kts | 98° |
| 2026-05-05 02:41 | 37.26850 | -121.63258 | 17917 ft | 226 kts | 99° |
| 2026-05-05 02:41 | 37.26467 | -121.61345 | 18305 ft | 230 kts | 99° |
| 2026-05-05 02:42 | 37.26072 | -121.59411 | 18833 ft | 228 kts | 99° |
| 2026-05-05 02:42 | 37.25676 | -121.57487 | 19310 ft | 228 kts | 99° |
| 2026-05-05 02:42 | 37.25279 | -121.55550 | 19736 ft | 231 kts | 99° |
| 2026-05-05 02:42 | 37.24882 | -121.53606 | 20268 ft | 228 kts | 98° |
| 2026-05-05 02:43 | 37.24493 | -121.51696 | 20679 ft | 230 kts | 98° |
| 2026-05-05 02:43 | 37.24097 | -121.49759 | 21120 ft | 231 kts | 98° |
| 2026-05-05 02:43 | 37.23700 | -121.47824 | 21584 ft | 230 kts | 97° |
| 2026-05-05 02:43 | 37.23306 | -121.45892 | 21976 ft | 231 kts | 97° |
| 2026-05-05 02:44 | 37.22905 | -121.43940 | 22395 ft | 232 kts | 97° |
| 2026-05-05 02:44 | 37.22506 | -121.41992 | 22814 ft | 231 kts | 97° |
| 2026-05-05 02:44 | 37.22106 | -121.40053 | 23313 ft | 228 kts | 97° |
| 2026-05-05 02:44 | 37.21711 | -121.38140 | 23742 ft | 226 kts | 97° |
| 2026-05-05 02:45 | 37.21324 | -121.36252 | 24137 ft | 226 kts | 96° |
| 2026-05-05 02:45 | 37.20935 | -121.34351 | 24495 ft | 227 kts | 97° |
| 2026-05-05 02:45 | 37.20539 | -121.32433 | 24910 ft | 226 kts | 97° |
| 2026-05-05 02:45 | 37.20142 | -121.30511 | 25206 ft | 230 kts | 96° |
| 2026-05-05 02:46 | 37.19740 | -121.28550 | 25599 ft | 230 kts | 96° |
| 2026-05-05 02:46 | 37.19342 | -121.26623 | 25975 ft | 230 kts | 97° |
| 2026-05-05 02:46 | 37.18943 | -121.24706 | 26370 ft | 228 kts | 96° |
| 2026-05-05 02:46 | 37.18546 | -121.22786 | 26765 ft | 227 kts | 97° |
| 2026-05-05 02:47 | 37.18152 | -121.20892 | 27157 ft | 226 kts | 96° |
| 2026-05-05 02:47 | 37.17755 | -121.18986 | 27550 ft | 224 kts | 95° |
| 2026-05-05 02:47 | 37.17361 | -121.17091 | 27939 ft | 223 kts | 96° |
| 2026-05-05 02:47 | 37.16978 | -121.15247 | 28307 ft | 222 kts | 96° |
| 2026-05-05 02:48 | 37.16591 | -121.13381 | 28670 ft | 221 kts | 95° |
| 2026-05-05 02:48 | 37.16203 | -121.11518 | 29034 ft | 219 kts | 95° |
| 2026-05-05 02:48 | 37.15824 | -121.09701 | 29393 ft | 217 kts | 95° |
| 2026-05-05 02:48 | 37.15441 | -121.07849 | 29644 ft | 220 kts | 95° |
| 2026-05-05 02:49 | 37.15057 | -121.06002 | 29905 ft | 222 kts | 94° |
| 2026-05-05 02:49 | 37.14672 | -121.04140 | 30198 ft | 222 kts | 95° |
| 2026-05-05 02:49 | 37.14276 | -121.02245 | 30433 ft | 224 kts | 94° |
| 2026-05-05 02:49 | 37.13883 | -121.00352 | 30635 ft | 227 kts | 95° |
| 2026-05-05 02:50 | 37.13481 | -120.98419 | 30809 ft | 232 kts | 95° |
| 2026-05-05 02:50 | 37.13075 | -120.96474 | 31038 ft | 234 kts | 96° |
| 2026-05-05 02:50 | 37.12658 | -120.94492 | 31256 ft | 236 kts | 96° |
| 2026-05-05 02:50 | 37.12239 | -120.92499 | 31468 ft | 238 kts | 97° |
| 2026-05-05 02:51 | 37.11818 | -120.90507 | 31669 ft | 240 kts | 97° |
| 2026-05-05 02:51 | 37.11391 | -120.88482 | 31878 ft | 242 kts | 98° |
| 2026-05-05 02:51 | 37.10957 | -120.86419 | 32075 ft | 244 kts | 98° |
| 2026-05-05 02:51 | 37.10522 | -120.84360 | 32267 ft | 246 kts | 98° |
| 2026-05-05 02:52 | 37.10087 | -120.82295 | 32459 ft | 248 kts | 98° |
| 2026-05-05 02:52 | 37.09646 | -120.80204 | 32593 ft | 252 kts | 99° |
| 2026-05-05 02:52 | 37.09196 | -120.78067 | 32728 ft | 256 kts | 99° |
| 2026-05-05 02:52 | 37.08736 | -120.75891 | 32856 ft | 259 kts | 100° |
| 2026-05-05 02:53 | 37.08272 | -120.73699 | 32986 ft | 262 kts | 100° |
| 2026-05-05 02:53 | 37.07805 | -120.71500 | 33122 ft | 265 kts | 100° |
| 2026-05-05 02:53 | 37.07334 | -120.69279 | 33252 ft | 267 kts | 101° |
| 2026-05-05 02:53 | 37.06848 | -120.66992 | 33402 ft | 270 kts | 101° |
| 2026-05-05 02:54 | 37.06364 | -120.64718 | 33532 ft | 272 kts | 102° |
| 2026-05-05 02:54 | 37.05876 | -120.62426 | 33667 ft | 274 kts | 102° |
| 2026-05-05 02:54 | 37.05383 | -120.60113 | 33805 ft | 276 kts | 102° |
| 2026-05-05 02:54 | 37.04884 | -120.57774 | 33946 ft | 278 kts | 103° |
| 2026-05-05 02:55 | 37.04390 | -120.55458 | 34126 ft | 280 kts | 102° |
| 2026-05-05 02:55 | 37.03882 | -120.53085 | 34287 ft | 281 kts | 103° |
| 2026-05-05 02:55 | 37.03374 | -120.50711 | 34439 ft | 283 kts | 103° |
| 2026-05-05 02:55 | 37.02871 | -120.48363 | 34591 ft | 284 kts | 103° |
| 2026-05-05 02:56 | 37.02361 | -120.45985 | 34769 ft | 285 kts | 103° |
| 2026-05-05 02:56 | 37.01844 | -120.43574 | 34907 ft | 286 kts | 104° |
| 2026-05-05 02:56 | 37.01331 | -120.41186 | 35053 ft | 286 kts | 104° |
| 2026-05-05 02:56 | 37.00815 | -120.38788 | 35209 ft | 287 kts | 105° |
| 2026-05-05 02:57 | 37.00298 | -120.36388 | 35370 ft | 287 kts | 105° |
| 2026-05-05 02:57 | 36.99770 | -120.33939 | 35537 ft | 287 kts | 106° |
| 2026-05-05 02:57 | 36.99244 | -120.31499 | 35687 ft | 288 kts | 107° |
| 2026-05-05 02:57 | 36.98728 | -120.29108 | 35846 ft | 287 kts | 106° |
| 2026-05-05 02:58 | 36.98204 | -120.26688 | 36009 ft | 287 kts | 107° |
| 2026-05-05 02:58 | 36.97683 | -120.24290 | 36159 ft | 286 kts | 107° |
| 2026-05-05 02:58 | 36.97164 | -120.21898 | 36308 ft | 286 kts | 107° |
| 2026-05-05 02:58 | 36.96641 | -120.19483 | 36473 ft | 285 kts | 108° |
| 2026-05-05 02:59 | 36.96131 | -120.17123 | 36620 ft | 284 kts | 108° |
| 2026-05-05 02:59 | 36.95613 | -120.14735 | 36770 ft | 282 kts | 108° |
| 2026-05-05 02:59 | 36.95102 | -120.12387 | 36926 ft | 281 kts | 109° |
| 2026-05-05 02:59 | 36.94590 | -120.10033 | 37080 ft | 279 kts | 109° |
| 2026-05-05 03:00 | 36.94085 | -120.07716 | 37224 ft | 277 kts | 109° |
| 2026-05-05 03:00 | 36.93578 | -120.05389 | 37388 ft | 275 kts | 109° |
| 2026-05-05 03:00 | 36.93075 | -120.03087 | 37539 ft | 273 kts | 109° |
| 2026-05-05 03:00 | 36.92583 | -120.00834 | 37708 ft | 270 kts | 110° |
| 2026-05-05 03:01 | 36.92091 | -119.98589 | 37826 ft | 269 kts | 110° |
| 2026-05-05 03:01 | 36.91591 | -119.96311 | 37873 ft | 271 kts | 110° |
| 2026-05-05 03:01 | 36.91093 | -119.94048 | 38000 ft | 271 kts | 110° |
| 2026-05-05 03:01 | 36.90590 | -119.91766 | 38068 ft | 272 kts | 111° |
| 2026-05-05 03:02 | 36.90107 | -119.89501 | 38159 ft | 273 kts | 109° |
| 2026-05-05 03:02 | 36.89814 | -119.87106 | 38249 ft | 279 kts | 98° |
| 2026-05-05 03:02 | 36.89936 | -119.84637 | 38370 ft | 285 kts | 85° |
| 2026-05-05 03:02 | 36.90386 | -119.82217 | 38436 ft | 289 kts | 78° |
| 2026-05-05 03:03 | 36.90980 | -119.79782 | 38470 ft | 294 kts | 77° |
| 2026-05-05 03:03 | 36.91578 | -119.77327 | 38516 ft | 297 kts | 78° |
| 2026-05-05 03:03 | 36.92114 | -119.74826 | 38565 ft | 299 kts | 80° |
| 2026-05-05 03:04 | 36.92980 | -119.69698 | 38606 ft | 305 kts | 84° |
| 2026-05-05 03:04 | 36.93718 | -119.64449 | 38674 ft | 312 kts | 85° |
| 2026-05-05 03:05 | 36.94483 | -119.59053 | 38742 ft | 320 kts | 84° |
| 2026-05-05 03:05 | 36.95301 | -119.53541 | 38805 ft | 327 kts | 83° |
| 2026-05-05 03:06 | 36.96144 | -119.47956 | 39025 ft | 328 kts | 83° |
| 2026-05-05 03:06 | 36.96569 | -119.45130 | 39155 ft | 328 kts | 84° |
| 2026-05-05 03:06 | 36.96984 | -119.42361 | 39297 ft | 327 kts | 83° |
| 2026-05-05 03:06 | 36.97402 | -119.39547 | 39436 ft | 327 kts | 84° |
| 2026-05-05 03:07 | 36.97812 | -119.36777 | 39566 ft | 326 kts | 84° |
| 2026-05-05 03:07 | 36.98229 | -119.33952 | 39687 ft | 326 kts | 84° |
| 2026-05-05 03:07 | 36.98644 | -119.31136 | 39818 ft | 325 kts | 84° |
| 2026-05-05 03:07 | 36.99054 | -119.28348 | 39942 ft | 324 kts | 84° |
| 2026-05-05 03:08 | 36.99455 | -119.25618 | 40075 ft | 323 kts | 84° |
| 2026-05-05 03:08 | 36.99860 | -119.22858 | 40207 ft | 321 kts | 84° |
| 2026-05-05 03:08 | 37.00265 | -119.20097 | 40349 ft | 320 kts | 84° |
| 2026-05-05 03:08 | 37.00663 | -119.17378 | 40481 ft | 319 kts | 84° |
| 2026-05-05 03:09 | 37.01059 | -119.14669 | 40621 ft | 317 kts | 84° |
| 2026-05-05 03:09 | 37.01453 | -119.11967 | 40759 ft | 315 kts | 84° |
| 2026-05-05 03:09 | 37.01847 | -119.09258 | 40889 ft | 313 kts | 84° |
| 2026-05-05 03:10 | 37.02626 | -119.03884 | 40995 ft | 316 kts | 84° |
| 2026-05-05 03:10 | 37.03416 | -118.98387 | 40971 ft | 323 kts | 84° |
| 2026-05-05 03:11 | 37.04222 | -118.92789 | 40964 ft | 329 kts | 85° |
| 2026-05-05 03:11 | 37.05043 | -118.87075 | 40949 ft | 336 kts | 84° |
| 2026-05-05 03:12 | 37.05873 | -118.81279 | 40948 ft | 342 kts | 84° |
| 2026-05-05 03:12 | 37.06715 | -118.75377 | 40945 ft | 348 kts | 84° |
| 2026-05-05 03:13 | 37.07567 | -118.69386 | 40962 ft | 352 kts | 84° |
| 2026-05-05 03:13 | 37.08421 | -118.63349 | 40934 ft | 358 kts | 84° |
| 2026-05-05 03:14 | 37.09292 | -118.57175 | 40951 ft | 362 kts | 84° |
| 2026-05-05 03:14 | 37.10176 | -118.50889 | 40948 ft | 367 kts | 84° |
| 2026-05-05 03:15 | 37.11057 | -118.44604 | 40938 ft | 370 kts | 84° |
| 2026-05-05 03:15 | 37.11942 | -118.38242 | 40945 ft | 372 kts | 84° |
| 2026-05-05 03:16 | 37.12832 | -118.31825 | 40941 ft | 375 kts | 85° |
| 2026-05-05 03:16 | 37.13727 | -118.25350 | 40952 ft | 377 kts | 85° |
| 2026-05-05 03:17 | 37.14615 | -118.18898 | 40950 ft | 378 kts | 85° |
| 2026-05-05 03:17 | 37.15505 | -118.12405 | 40944 ft | 380 kts | 85° |
| 2026-05-05 03:18 | 37.16400 | -118.05840 | 40946 ft | 382 kts | 85° |
| 2026-05-05 03:18 | 37.17294 | -117.99258 | 40922 ft | 385 kts | 85° |
| 2026-05-05 03:19 | 37.18636 | -117.89326 | 40912 ft | 388 kts | 85° |
| 2026-05-05 03:19 | 37.19530 | -117.82667 | 40923 ft | 389 kts | 85° |
| 2026-05-05 03:20 | 37.20422 | -117.76002 | 40896 ft | 391 kts | 85° |
| 2026-05-05 03:20 | 37.21325 | -117.69241 | 40901 ft | 392 kts | 85° |
| 2026-05-05 03:21 | 37.22217 | -117.62512 | 40901 ft | 393 kts | 85° |
| 2026-05-05 03:21 | 37.23108 | -117.55756 | 40892 ft | 394 kts | 85° |
| 2026-05-05 03:22 | 37.24003 | -117.48939 | 40908 ft | 396 kts | 85° |
| 2026-05-05 03:22 | 37.24891 | -117.42138 | 40899 ft | 397 kts | 85° |
| 2026-05-05 03:23 | 37.25781 | -117.35313 | 40915 ft | 398 kts | 85° |
| 2026-05-05 03:23 | 37.26678 | -117.28384 | 40911 ft | 399 kts | 86° |
| 2026-05-05 03:24 | 37.27232 | -117.21516 | 40918 ft | 390 kts | 98° |
| 2026-05-05 03:24 | 37.26840 | -117.18188 | 40918 ft | 379 kts | 112° |
| 2026-05-05 03:24 | 37.25838 | -117.15232 | 40913 ft | 365 kts | 129° |
| 2026-05-05 03:25 | 37.24259 | -117.12882 | 40923 ft | 350 kts | 146° |
| 2026-05-05 03:25 | 37.22286 | -117.11187 | 40932 ft | 341 kts | 156° |
| 2026-05-05 03:25 | 37.18139 | -117.08279 | 40892 ft | 341 kts | 159° |
| 2026-05-05 03:26 | 37.14076 | -117.05173 | 40897 ft | 344 kts | 154° |
| 2026-05-05 03:26 | 37.10099 | -117.01852 | 40905 ft | 345 kts | 154° |
| 2026-05-05 03:27 | 37.06117 | -116.98494 | 40897 ft | 345 kts | 154° |
| 2026-05-05 03:27 | 37.02143 | -116.95155 | 40901 ft | 346 kts | 154° |
| 2026-05-05 03:28 | 36.98129 | -116.91789 | 40896 ft | 346 kts | 154° |
| 2026-05-05 03:28 | 36.94143 | -116.88451 | 40887 ft | 347 kts | 154° |
| 2026-05-05 03:29 | 36.90120 | -116.85087 | 40893 ft | 347 kts | 154° |
| 2026-05-05 03:29 | 36.86100 | -116.81732 | 40886 ft | 348 kts | 154° |
| 2026-05-05 03:30 | 36.82040 | -116.78346 | 40861 ft | 350 kts | 154° |
| 2026-05-05 03:30 | 36.77998 | -116.74979 | 40803 ft | 351 kts | 154° |
| 2026-05-05 03:31 | 36.75962 | -116.73283 | 40666 ft | 347 kts | 154° |
| 2026-05-05 03:31 | 36.73956 | -116.71610 | 40256 ft | 347 kts | 155° |
| 2026-05-05 03:31 | 36.71938 | -116.69938 | 39723 ft | 354 kts | 155° |
| 2026-05-05 03:31 | 36.69856 | -116.68215 | 39174 ft | 360 kts | 155° |
| 2026-05-05 03:32 | 36.67798 | -116.66510 | 38646 ft | 365 kts | 155° |
| 2026-05-05 03:32 | 36.65644 | -116.64725 | 38141 ft | 369 kts | 155° |
| 2026-05-05 03:32 | 36.63504 | -116.62948 | 37654 ft | 372 kts | 155° |
| 2026-05-05 03:32 | 36.61360 | -116.61117 | 37165 ft | 377 kts | 153° |
| 2026-05-05 03:33 | 36.59300 | -116.59068 | 36671 ft | 385 kts | 148° |
| 2026-05-05 03:33 | 36.57353 | -116.56767 | 36190 ft | 389 kts | 144° |
| 2026-05-05 03:33 | 36.55452 | -116.54382 | 35683 ft | 389 kts | 145° |
| 2026-05-05 03:33 | 36.53545 | -116.52013 | 35192 ft | 387 kts | 146° |
| 2026-05-05 03:34 | 36.51633 | -116.49696 | 34706 ft | 384 kts | 147° |
| 2026-05-05 03:34 | 36.49726 | -116.47421 | 34212 ft | 382 kts | 147° |
| 2026-05-05 03:34 | 36.47783 | -116.45119 | 33705 ft | 381 kts | 147° |
| 2026-05-05 03:34 | 36.45877 | -116.42870 | 33218 ft | 380 kts | 148° |
| 2026-05-05 03:35 | 36.43989 | -116.40596 | 32783 ft | 380 kts | 146° |
| 2026-05-05 03:35 | 36.42115 | -116.38274 | 32344 ft | 380 kts | 146° |
| 2026-05-05 03:35 | 36.40241 | -116.35944 | 31906 ft | 381 kts | 146° |
| 2026-05-05 03:35 | 36.38369 | -116.33626 | 31464 ft | 380 kts | 146° |
| 2026-05-05 03:36 | 36.36495 | -116.31313 | 31022 ft | 380 kts | 146° |
| 2026-05-05 03:36 | 36.34629 | -116.29018 | 30591 ft | 380 kts | 146° |
| 2026-05-05 03:36 | 36.32741 | -116.26695 | 30140 ft | 377 kts | 146° |
| 2026-05-05 03:36 | 36.30907 | -116.24440 | 29708 ft | 374 kts | 146° |
| 2026-05-05 03:37 | 36.29097 | -116.22170 | 29249 ft | 373 kts | 144° |
| 2026-05-05 03:37 | 36.27358 | -116.19785 | 28790 ft | 375 kts | 141° |
| 2026-05-05 03:37 | 36.25741 | -116.17316 | 28332 ft | 376 kts | 138° |
| 2026-05-05 03:37 | 36.24165 | -116.14803 | 27872 ft | 374 kts | 137° |
| 2026-05-05 03:38 | 36.22586 | -116.12302 | 27413 ft | 372 kts | 137° |
| 2026-05-05 03:38 | 36.20981 | -116.09803 | 26950 ft | 370 kts | 138° |
| 2026-05-05 03:38 | 36.19388 | -116.07348 | 26482 ft | 368 kts | 138° |
| 2026-05-05 03:38 | 36.17786 | -116.04890 | 26007 ft | 365 kts | 137° |
| 2026-05-05 03:39 | 36.16191 | -116.02445 | 25542 ft | 363 kts | 137° |
| 2026-05-05 03:39 | 36.14621 | -116.00047 | 25072 ft | 361 kts | 137° |
| 2026-05-05 03:39 | 36.13052 | -115.97650 | 24598 ft | 359 kts | 137° |
| 2026-05-05 03:39 | 36.11475 | -115.95242 | 24121 ft | 357 kts | 136° |
| 2026-05-05 03:40 | 36.09987 | -115.92831 | 23655 ft | 355 kts | 134° |
| 2026-05-05 03:40 | 36.08550 | -115.90411 | 23177 ft | 342 kts | 133° |
| 2026-05-05 03:40 | 36.07166 | -115.88077 | 22704 ft | 331 kts | 134° |
| 2026-05-05 03:40 | 36.05800 | -115.85796 | 22220 ft | 323 kts | 133° |
| 2026-05-05 03:41 | 36.04462 | -115.83636 | 21761 ft | 317 kts | 136° |
| 2026-05-05 03:41 | 36.02880 | -115.81849 | 21281 ft | 303 kts | 152° |
| 2026-05-05 03:41 | 36.01063 | -115.80629 | 20809 ft | 293 kts | 162° |
| 2026-05-05 03:41 | 35.99142 | -115.80030 | 20353 ft | 284 kts | 176° |
| 2026-05-05 03:42 | 35.97202 | -115.79604 | 19879 ft | 283 kts | 174° |
| 2026-05-05 03:42 | 35.95285 | -115.79025 | 19407 ft | 284 kts | 170° |
| 2026-05-05 03:42 | 35.93377 | -115.78324 | 18932 ft | 285 kts | 168° |
| 2026-05-05 03:42 | 35.91497 | -115.77568 | 18464 ft | 285 kts | 167° |
| 2026-05-05 03:43 | 35.89624 | -115.76795 | 17999 ft | 285 kts | 167° |
| 2026-05-05 03:43 | 35.87745 | -115.76017 | 17525 ft | 286 kts | 166° |
| 2026-05-05 03:43 | 35.85904 | -115.75257 | 17055 ft | 286 kts | 166° |
| 2026-05-05 03:43 | 35.84004 | -115.74474 | 16583 ft | 286 kts | 166° |
| 2026-05-05 03:44 | 35.82137 | -115.73708 | 16115 ft | 286 kts | 166° |
| 2026-05-05 03:44 | 35.80255 | -115.72935 | 15643 ft | 285 kts | 166° |
| 2026-05-05 03:44 | 35.78363 | -115.72152 | 15177 ft | 285 kts | 163° |
| 2026-05-05 03:44 | 35.76619 | -115.70988 | 14704 ft | 291 kts | 146° |
| 2026-05-05 03:45 | 35.75256 | -115.69151 | 14251 ft | 296 kts | 128° |
| 2026-05-05 03:45 | 35.74126 | -115.67046 | 13792 ft | 295 kts | 126° |
| 2026-05-05 03:45 | 35.72976 | -115.64957 | 13327 ft | 293 kts | 128° |
| 2026-05-05 03:45 | 35.71790 | -115.62962 | 12869 ft | 292 kts | 130° |
| 2026-05-05 03:46 | 35.70549 | -115.60996 | 12410 ft | 290 kts | 131° |
| 2026-05-05 03:46 | 35.69361 | -115.59005 | 11933 ft | 291 kts | 123° |
| 2026-05-05 03:46 | 35.68791 | -115.56652 | 11467 ft | 295 kts | 97° |
| 2026-05-05 03:46 | 35.68872 | -115.54119 | 11014 ft | 294 kts | 88° |
| 2026-05-05 03:47 | 35.69043 | -115.51649 | 10555 ft | 292 kts | 89° |
| 2026-05-05 03:47 | 35.69147 | -115.49165 | 10089 ft | 288 kts | 91° |
| 2026-05-05 03:47 | 35.69173 | -115.46745 | 9624 ft | 284 kts | 93° |
| 2026-05-05 03:47 | 35.69156 | -115.44324 | 9146 ft | 281 kts | 94° |
| 2026-05-05 03:48 | 35.69115 | -115.41949 | 8675 ft | 280 kts | 94° |
| 2026-05-05 03:48 | 35.69070 | -115.39584 | 8367 ft | 272 kts | 94° |
| 2026-05-05 03:48 | 35.69028 | -115.37301 | 8308 ft | 259 kts | 94° |
| 2026-05-05 03:48 | 35.68988 | -115.35132 | 8296 ft | 248 kts | 95° |
| 2026-05-05 03:49 | 35.69008 | -115.33052 | 8297 ft | 241 kts | 91° |
| 2026-05-05 03:49 | 35.69144 | -115.30971 | 8285 ft | 246 kts | 79° |
| 2026-05-05 03:49 | 35.70085 | -115.29198 | 8301 ft | 252 kts | 42° |
| 2026-05-05 03:49 | 35.71586 | -115.28095 | 8293 ft | 254 kts | 26° |
| 2026-05-05 03:50 | 35.73210 | -115.27238 | 8316 ft | 255 kts | 21° |
| 2026-05-05 03:50 | 35.74956 | -115.26792 | 8317 ft | 256 kts | 6° |
| 2026-05-05 03:50 | 35.76738 | -115.26629 | 8043 ft | 258 kts | 2° |
| 2026-05-05 03:50 | 35.78522 | -115.26529 | 7862 ft | 254 kts | 1° |
| 2026-05-05 03:51 | 35.80307 | -115.26441 | 7609 ft | 255 kts | 1° |
| 2026-05-05 03:51 | 35.82094 | -115.26349 | 7418 ft | 256 kts | 1° |
| 2026-05-05 03:51 | 35.83855 | -115.26252 | 7260 ft | 257 kts | 1° |
| 2026-05-05 03:51 | 35.85641 | -115.26148 | 7146 ft | 255 kts | 1° |
| 2026-05-05 03:52 | 35.87405 | -115.26040 | 7041 ft | 254 kts | 0° |
| 2026-05-05 03:52 | 35.89180 | -115.25923 | 7021 ft | 249 kts | 1° |
| 2026-05-05 03:52 | 35.90884 | -115.25815 | 7017 ft | 245 kts | 1° |
| 2026-05-05 03:52 | 35.92595 | -115.25703 | 7009 ft | 242 kts | 1° |
| 2026-05-05 03:53 | 35.94279 | -115.25586 | 6895 ft | 243 kts | 1° |
| 2026-05-05 03:53 | 35.95981 | -115.25465 | 6685 ft | 244 kts | 1° |
| 2026-05-05 03:53 | 35.97665 | -115.25291 | 6527 ft | 244 kts | 4° |
| 2026-05-05 03:53 | 35.99326 | -115.25056 | 6411 ft | 240 kts | 4° |
| 2026-05-05 03:54 | 36.00993 | -115.24809 | 6015 ft | 244 kts | 9° |
| 2026-05-05 03:54 | 36.02496 | -115.23988 | 5218 ft | 236 kts | 34° |
| 2026-05-05 03:54 | 36.03581 | -115.22619 | 4470 ft | 228 kts | 57° |
| 2026-05-05 03:54 | 36.04225 | -115.20979 | 4126 ft | 191 kts | 74° |
| 2026-05-05 03:55 | 36.04454 | -115.19550 | 4028 ft | 147 kts | 89° |
| 2026-05-05 03:55 | 36.04514 | -115.18407 | 3884 ft | 126 kts | 94° |
| 2026-05-05 03:55 | 36.04539 | -115.17376 | 3731 ft | 116 kts | 101° |
| 2026-05-05 03:55 | 36.04391 | -115.16429 | 3576 ft | 111 kts | 121° |
| 2026-05-05 03:56 | 36.04083 | -115.15551 | 3412 ft | 110 kts | 128° |
| 2026-05-05 03:56 | 36.03692 | -115.14735 | 3283 ft | 110 kts | 133° |
| 2026-05-05 03:56 | 36.03207 | -115.14043 | 3211 ft | 104 kts | 151° |
| 2026-05-05 03:56 | 36.02580 | -115.13639 | 3165 ft | 99 kts | 169° |
| 2026-05-05 03:57 | 36.01906 | -115.13480 | 3085 ft | 99 kts | 183° |
| 2026-05-05 03:57 | 36.01222 | -115.13487 | 2997 ft | 98 kts | 187° |
| 2026-05-05 03:57 | 36.00525 | -115.13519 | 2884 ft | 100 kts | 187° |
| 2026-05-05 03:57 | 35.99810 | -115.13512 | 2731 ft | 103 kts | 185° |
| 2026-05-05 03:58 | 35.99098 | -115.13518 | 2613 ft | 101 kts | 185° |
| 2026-05-05 03:58 | 35.98392 | -115.13526 | 2486 ft | 101 kts | 186° |
| 2026-05-05 03:58 | 35.97716 | -115.13537 | 2420 ft | 89 kts | 181° |
| 2026-05-05 03:58 | 35.97194 | -115.13544 | 2445 ft | 59 kts | 181° |
| 2026-05-05 03:59 | 35.96943 | -115.13545 | 2459 ft | 15 kts | 182° |
| 2026-05-05 03:59 | 35.96859 | -115.13548 | 2463 ft | 9 kts | 180° |
| 2026-05-05 03:59 | 35.96802 | -115.13549 | 2467 ft | 2 kts | 184° |
| 2026-05-05 03:59 | 35.96787 | -115.13550 | 2468 ft | 5 kts | 182° |
| 2026-05-05 04:00 | 35.96744 | -115.13553 | 2470 ft | 5 kts | 192° |
| 2026-05-05 04:00 | 35.96722 | -115.13609 | 2470 ft | 10 kts | 270° |
| 2026-05-05 04:00 | 35.96769 | -115.13651 | 2468 ft | 13 kts | 2° |
| 2026-05-05 04:00 | 35.96878 | -115.13650 | 2460 ft | 17 kts | 1° |
| 2026-05-05 04:01 | 35.97017 | -115.13648 | 2451 ft | 22 kts | 359° |
| 2026-05-05 04:01 | 35.97166 | -115.13646 | 2444 ft | 21 kts | 1° |
| 2026-05-05 04:01 | 35.97326 | -115.13644 | 2437 ft | 24 kts | 360° |
| 2026-05-05 04:01 | 35.97503 | -115.13641 | 2429 ft | 26 kts | 1° |
| 2026-05-05 04:02 | 35.97670 | -115.13640 | 2422 ft | 13 kts | 360° |
| 2026-05-05 04:02 | 35.97736 | -115.13636 | 2419 ft | 10 kts | 2° |
| 2026-05-05 04:02 | 35.97812 | -115.13638 | 2416 ft | 11 kts | 0° |
| 2026-05-05 04:02 | 35.97893 | -115.13637 | 2413 ft | 8 kts | 1° |
| 2026-05-05 04:03 | 35.97926 | -115.13684 | 2411 ft | 9 kts | 270° |
| 2026-05-05 04:03 | 35.97927 | -115.13763 | 2409 ft | 10 kts | 270° |
| 2026-05-05 04:03 | 35.97922 | -115.13846 | 2407 ft | 6 kts | 240° |
| 2026-05-05 04:03 | 35.97886 | -115.13856 | 2408 ft | 7 kts | 178° |
| 2026-05-05 04:04 | 35.97830 | -115.13856 | 2411 ft | 7 kts | 176° |
| 2026-05-05 04:04 | 35.97794 | -115.13834 | 2413 ft | 5 kts | 142° |
| 2026-05-05 04:04 | 35.97766 | -115.13804 | 2415 ft | 5 kts | 135° |
| 2026-05-05 04:04 | 35.97750 | -115.13785 | 2416 ft | 0 kts | 138° |
| 2026-05-05 04:05 | 35.97743 | -115.13777 | 2417 ft | 2 kts | 146° |
| 2026-05-05 04:05 | 35.97727 | -115.13775 | 2418 ft | 0 kts | 180° |